Grande Mariner — WCY6594 — position and weather

sailwx.info

Track history (hours):
 
Tides and Currents Weather Stations Pressure Air Temp Water Temp Dewpoint Dewpoint Depression Visibility Wind Speed Wind Dir Waves Ship Positions

Grande Mariner

Owner: AMERICAN CANADIAN CARIBBEAN LINE INC, WARREN, RI. More information available from US FCC via Universal Licensing System and Coast Guard Vessel Documentation Center.

Last reported at 2017-Dec-17 21:31 UTC. Time now 2017-Dec-17 21:46 UTC.
Position N 26°46' W 080°03'.

Length 56 m; draft 2 m.

Type: Passenger vessel. MMSI: 369024000.

Date/timePositionNaut miles runAvg speedWind from/ knotsBaromVisibWave heightAir tempDewpointWater temp
2017-Dec-17 21:31N 26°46' W 080°03'0 0.0
2017-Dec-17 21:00N 26°46' W 080°03'0 0.0
2017-Dec-17 20:31N 26°46' W 080°03'0 0.0
2017-Dec-17 20:01N 26°46' W 080°03'0 0.0
2017-Dec-17 19:31N 26°46' W 080°03'0 0.0
2017-Dec-17 19:01N 26°46' W 080°03'0 0.0
2017-Dec-17 18:30N 26°46' W 080°03'0 0.0
2017-Dec-17 18:00N 26°46' W 080°03'0 0.0
2017-Dec-17 17:30N 26°46' W 080°03'0 0.0
2017-Dec-17 17:00N 26°46' W 080°03'0 0.0
2017-Dec-17 16:30N 26°46' W 080°03'0 0.0
2017-Dec-17 16:00N 26°46' W 080°03'0 0.0
2017-Dec-17 15:31N 26°46' W 080°03'0 0.0
2017-Dec-17 15:00N 26°46' W 080°03'0 0.0
2017-Dec-17 14:30N 26°46' W 080°03'0 0.0
2017-Dec-17 14:01N 26°46' W 080°03'0 0.0
2017-Dec-17 13:30N 26°46' W 080°03'0 0.0
2017-Dec-17 13:00N 26°46' W 080°03'0 0.0
2017-Dec-17 12:30N 26°46' W 080°03'3 5.9
2017-Dec-17 12:00N 26°47' W 079°60'5 9.3
2017-Dec-17 11:30N 26°51' W 080°01'5 9.7
2017-Dec-17 11:00N 26°56' W 080°02'5 9.4
2017-Dec-17 10:30N 27°01' W 080°03'298 9.4
2017-Dec-16 02:57N 31°56' W 080°44'264 8.1
2017-Dec-14 18:30N 34°43' W 076°40'0 0.0
2017-Dec-14 18:00N 34°43' W 076°40'0 0.0
2017-Dec-14 17:30N 34°43' W 076°40'0 0.0
2017-Dec-14 17:00N 34°43' W 076°40'0 0.0
2017-Dec-14 16:30N 34°43' W 076°40'0 0.0
2017-Dec-14 16:00N 34°43' W 076°40'0 0.0
2017-Dec-14 15:00N 34°43' W 076°40'0 0.0
2017-Dec-14 14:30N 34°43' W 076°40'0 0.0
2017-Dec-14 14:00N 34°43' W 076°40'0 0.0
2017-Dec-14 13:30N 34°43' W 076°40'0 0.0
2017-Dec-14 13:00N 34°43' W 076°40'0 0.0
2017-Dec-14 12:30N 34°43' W 076°40'0 0.0
2017-Dec-14 12:00N 34°43' W 076°40'0 0.0
2017-Dec-14 11:30N 34°43' W 076°40'0 0.0
2017-Dec-14 11:00N 34°43' W 076°40'0 0.0
2017-Dec-14 10:30N 34°43' W 076°40'0 0.0
2017-Dec-14 10:00N 34°43' W 076°40'0 0.0
2017-Dec-14 09:30N 34°43' W 076°40'0 0.0
2017-Dec-14 09:00N 34°43' W 076°40'0 0.0
2017-Dec-14 08:30N 34°43' W 076°40'0 0.0
2017-Dec-14 08:00N 34°43' W 076°40'0 0.0
2017-Dec-14 07:30N 34°43' W 076°40'0 0.0
2017-Dec-14 07:00N 34°43' W 076°40'0 0.0
2017-Dec-14 06:30N 34°43' W 076°40'0 0.0
2017-Dec-14 05:54N 34°43' W 076°40'0 0.0
2017-Dec-14 05:30N 34°43' W 076°40'0 0.0
2017-Dec-14 05:00N 34°43' W 076°40'0 0.0
2017-Dec-14 04:30N 34°43' W 076°40'0 0.0
2017-Dec-14 04:00N 34°43' W 076°40'0 0.0
2017-Dec-14 03:30N 34°43' W 076°40'0 0.0
2017-Dec-14 03:00N 34°43' W 076°40'0 0.0
2017-Dec-14 02:30N 34°43' W 076°40'0 0.0
2017-Dec-14 02:00N 34°43' W 076°40'0 0.0
2017-Dec-14 01:30N 34°43' W 076°40'0 0.0
2017-Dec-14 01:00N 34°43' W 076°40'0 0.0
2017-Dec-14 00:30N 34°43' W 076°40'0 0.0
2017-Dec-14 00:00N 34°43' W 076°40'0 0.0
2017-Dec-13 23:30N 34°43' W 076°40'0 0.0
2017-Dec-13 23:00N 34°43' W 076°40'0 0.0
2017-Dec-13 22:30N 34°43' W 076°40'0 0.0
2017-Dec-13 22:00N 34°43' W 076°40'0 0.0
2017-Dec-13 21:30N 34°43' W 076°40'0 0.0
2017-Dec-13 21:00N 34°43' W 076°40'0 0.0
2017-Dec-13 20:30N 34°43' W 076°40'0 0.0
2017-Dec-13 20:00N 34°43' W 076°40'0 0.0
2017-Dec-13 19:30N 34°43' W 076°40'0 0.0
2017-Dec-13 19:00N 34°43' W 076°40'0 0.0
2017-Dec-13 18:30N 34°43' W 076°40'0 0.0
2017-Dec-13 18:00N 34°43' W 076°40'0 0.0
2017-Dec-13 17:30N 34°43' W 076°40'0 0.0
2017-Dec-13 17:00N 34°43' W 076°40'0 0.0
2017-Dec-13 16:30N 34°43' W 076°40'0 0.0
2017-Dec-13 16:00N 34°43' W 076°40'0 0.0
2017-Dec-13 15:30N 34°43' W 076°40'0 0.0
2017-Dec-13 15:00N 34°43' W 076°40'0 0.0
2017-Dec-13 14:30N 34°43' W 076°40'0 0.0
2017-Dec-13 14:00N 34°43' W 076°40'0 0.0
2017-Dec-13 13:30N 34°43' W 076°40'0 0.0
2017-Dec-13 13:00N 34°43' W 076°40'0 0.0
2017-Dec-13 12:30N 34°43' W 076°40'0 0.0
2017-Dec-13 11:57N 34°43' W 076°40'0 0.0
2017-Dec-13 11:30N 34°43' W 076°40'0 0.0
2017-Dec-13 11:00N 34°43' W 076°40'0 0.0
2017-Dec-13 10:30N 34°43' W 076°40'0 0.0
2017-Dec-13 10:00N 34°43' W 076°40'0 0.0
2017-Dec-13 09:30N 34°43' W 076°40'0 0.0
2017-Dec-13 09:00N 34°43' W 076°40'0 0.0
2017-Dec-13 08:30N 34°43' W 076°40'0 0.0
2017-Dec-13 08:00N 34°43' W 076°40'0 0.0
2017-Dec-13 07:30N 34°43' W 076°40'0 0.0
2017-Dec-13 07:00N 34°43' W 076°40'0 0.0
2017-Dec-13 06:30N 34°43' W 076°40'0 0.0
2017-Dec-13 06:00N 34°43' W 076°40'0 0.0
2017-Dec-13 05:30N 34°43' W 076°40'0 0.0
2017-Dec-13 05:00N 34°43' W 076°40'0 0.0
2017-Dec-13 04:30N 34°43' W 076°40'0 0.0
2017-Dec-13 04:00N 34°43' W 076°40'0 0.0
2017-Dec-13 03:30N 34°43' W 076°40'0 0.0
2017-Dec-13 03:00N 34°43' W 076°40'0 0.0
2017-Dec-13 02:30N 34°43' W 076°40'0 0.0
2017-Dec-13 02:00N 34°43' W 076°40'0 0.0
2017-Dec-13 01:30N 34°43' W 076°40'0 0.0
2017-Dec-13 01:00N 34°43' W 076°40'0 0.0
2017-Dec-13 00:30N 34°43' W 076°40'0 0.0
2017-Dec-13 00:00N 34°43' W 076°40'0 0.0
2017-Dec-12 23:30N 34°43' W 076°40'0 0.0
2017-Dec-12 23:00N 34°43' W 076°40'0 0.0
2017-Dec-12 22:30N 34°43' W 076°40'0 0.0
2017-Dec-12 22:00N 34°43' W 076°40'0 0.0
2017-Dec-12 21:30N 34°43' W 076°40'0 0.0
2017-Dec-12 21:00N 34°43' W 076°40'0 0.0
2017-Dec-12 20:30N 34°43' W 076°40'0 0.0
2017-Dec-12 20:00N 34°43' W 076°40'0 0.0
2017-Dec-12 19:30N 34°43' W 076°40'0 0.0
2017-Dec-12 19:00N 34°43' W 076°40'0 0.0
2017-Dec-12 18:30N 34°43' W 076°40'0 0.0
2017-Dec-12 18:00N 34°43' W 076°40'0 0.0
2017-Dec-12 17:30N 34°43' W 076°40'0 0.0
2017-Dec-12 17:00N 34°43' W 076°40'0 0.0
2017-Dec-12 16:30N 34°43' W 076°40'0 0.0
2017-Dec-12 16:00N 34°43' W 076°40'0 0.0
2017-Dec-12 15:30N 34°43' W 076°40'0 0.0
2017-Dec-12 15:00N 34°43' W 076°40'0 0.0
2017-Dec-12 14:30N 34°43' W 076°40'0 0.0
2017-Dec-12 14:00N 34°43' W 076°40'0 0.0
2017-Dec-12 13:30N 34°43' W 076°40'0 0.0
2017-Dec-12 13:00N 34°43' W 076°40'0 0.0
2017-Dec-12 12:30N 34°43' W 076°40'0 0.0
2017-Dec-12 12:00N 34°43' W 076°40'0 0.0
2017-Dec-12 11:30N 34°43' W 076°40'0 0.0
2017-Dec-12 11:00N 34°43' W 076°40'0 0.0
2017-Dec-12 10:30N 34°43' W 076°40'0 0.0
2017-Dec-12 10:00N 34°43' W 076°40'0 0.0
2017-Dec-12 09:30N 34°43' W 076°40'0 0.0
2017-Dec-12 09:00N 34°43' W 076°40'0 0.0
2017-Dec-12 08:30N 34°43' W 076°40'0 0.0
2017-Dec-12 08:00N 34°43' W 076°40'0 0.0
2017-Dec-12 07:30N 34°43' W 076°40'0 0.0
2017-Dec-12 07:00N 34°43' W 076°40'0 0.0
2017-Dec-12 06:30N 34°43' W 076°40'0 0.0
2017-Dec-12 06:00N 34°43' W 076°40'0 0.0
2017-Dec-12 05:30N 34°43' W 076°40'0 0.0
2017-Dec-12 05:00N 34°43' W 076°40'0 0.0
2017-Dec-12 04:30N 34°43' W 076°40'0 0.0
2017-Dec-12 04:00N 34°43' W 076°40'0 0.0
2017-Dec-12 03:30N 34°43' W 076°40'0 0.0
2017-Dec-12 03:00N 34°43' W 076°40'0 0.0
2017-Dec-12 02:30N 34°43' W 076°40'0 0.0
2017-Dec-12 02:00N 34°43' W 076°40'0 0.0
2017-Dec-12 01:30N 34°43' W 076°40'0 0.0
2017-Dec-12 01:00N 34°43' W 076°40'0 0.0
2017-Dec-12 00:30N 34°43' W 076°40'0 0.0
2017-Dec-12 00:00N 34°43' W 076°40'0 0.0
2017-Dec-11 23:30N 34°43' W 076°40'0 0.0
2017-Dec-11 23:00N 34°43' W 076°40'0 0.0
2017-Dec-11 22:30N 34°43' W 076°40'0 0.0
2017-Dec-11 22:00N 34°43' W 076°40'0 0.0
2017-Dec-11 21:30N 34°43' W 076°40'0 0.0
2017-Dec-11 21:00N 34°43' W 076°40'0 0.0
2017-Dec-11 20:30N 34°43' W 076°40'0 0.0
2017-Dec-11 20:00N 34°43' W 076°40'0 0.0
2017-Dec-11 19:30N 34°43' W 076°40'0 0.0
2017-Dec-11 19:00N 34°43' W 076°40'0 0.0
2017-Dec-11 18:30N 34°43' W 076°40'0 0.0
2017-Dec-11 18:01N 34°43' W 076°40'4 7.4
2017-Dec-11 17:30N 34°39' W 076°40'140 6.9
2017-Dec-10 21:06N 36°55' W 075°57'2 9.9
2017-Dec-10 20:57N 36°56' W 075°58'4 9.6
2017-Dec-10 20:30N 36°57' W 076°03'14 6.2
2017-Dec-10 18:14N 36°53' W 076°20'2 8.5
2017-Dec-10 18:00N 36°51' W 076°19'1 1.9
2017-Dec-10 17:30N 36°51' W 076°18'0 0.0
2017-Dec-10 17:00N 36°51' W 076°18'0 0.0
2017-Dec-10 16:30N 36°51' W 076°18'0 0.0
2017-Dec-10 16:00N 36°51' W 076°18'0 0.0
2017-Dec-10 15:30N 36°51' W 076°18'0 0.6
2017-Dec-10 15:00N 36°51' W 076°18'0 0.0
2017-Dec-10 14:30N 36°51' W 076°18'0 0.0
2017-Dec-10 14:00N 36°51' W 076°18'0 0.0
2017-Dec-10 13:30N 36°51' W 076°18'0 0.0
2017-Dec-10 13:00N 36°51' W 076°18'0 0.0
2017-Dec-10 12:30N 36°51' W 076°18'0 0.0
2017-Dec-10 12:00N 36°51' W 076°18'0 0.0
2017-Dec-10 11:30N 36°51' W 076°18'0 0.0
2017-Dec-10 11:00N 36°51' W 076°18'0 0.0
2017-Dec-10 10:30N 36°51' W 076°18'0 0.0
2017-Dec-10 10:00N 36°51' W 076°18'0 0.0
2017-Dec-10 09:30N 36°51' W 076°18'0 0.0
2017-Dec-10 09:00N 36°51' W 076°18'0 0.0
2017-Dec-10 08:30N 36°51' W 076°18'0 0.0
2017-Dec-10 08:00N 36°51' W 076°18'0 0.0
2017-Dec-10 07:30N 36°51' W 076°18'0 0.0
2017-Dec-10 07:00N 36°51' W 076°18'0 0.0
2017-Dec-10 06:30N 36°51' W 076°18'0 0.0
2017-Dec-10 06:00N 36°51' W 076°18'0 0.0
2017-Dec-10 05:30N 36°51' W 076°18'0 0.0
2017-Dec-10 05:00N 36°51' W 076°18'0 0.0
2017-Dec-10 04:30N 36°51' W 076°18'0 0.0
2017-Dec-10 04:00N 36°51' W 076°18'0 0.0
2017-Dec-10 03:30N 36°51' W 076°18'0 0.0
2017-Dec-10 03:00N 36°51' W 076°18'0 0.0
2017-Dec-10 02:30N 36°51' W 076°18'0 0.0
2017-Dec-10 02:00N 36°51' W 076°18'0 0.0
2017-Dec-10 01:30N 36°51' W 076°18'0 0.0
2017-Dec-10 01:00N 36°51' W 076°18'4 8.2
2017-Dec-10 00:30N 36°54' W 076°20'124 9.7
2017-Dec-09 11:46N 38°58' W 076°24'311.2
2017-Dec-09 11:29N 39°01' W 076°22'510.8
2017-Dec-09 11:00N 39°06' W 076°20'511.0
2017-Dec-09 10:30N 39°11' W 076°17'611.5
2017-Dec-09 10:01N 39°16' W 076°14'611.6
2017-Dec-09 09:30N 39°21' W 076°10'611.6
2017-Dec-09 09:01N 39°24' W 076°03'510.0
2017-Dec-09 08:30N 39°27' W 075°59'510.4
2017-Dec-09 08:01N 39°31' W 075°54'4 8.8
2017-Dec-09 07:31N 39°32' W 075°48'5 8.9
2017-Dec-09 07:00N 39°33' W 075°42'4 8.7
2017-Dec-09 06:31N 39°33' W 075°37'3 6.8
2017-Dec-09 06:00N 39°32' W 075°33'510.9
2017-Dec-09 05:31N 39°26' W 075°32'611.1
2017-Dec-09 05:00N 39°22' W 075°28'511.0
2017-Dec-09 04:30N 39°18' W 075°23'510.7
2017-Dec-09 04:00N 39°14' W 075°18'57 6.6
2017-Dec-08 19:28N 39°32' W 074°09'510.6
2017-Dec-08 19:00N 39°37' W 074°06'610.5
2017-Dec-08 18:27N 39°42' W 074°04'610.5
2017-Dec-08 17:56N 39°48' W 074°02'4310.1
2017-Dec-08 13:43N 40°30' W 073°57'2 9.2
2017-Dec-08 13:30N 40°31' W 073°59'5 9.0
2017-Dec-08 13:00N 40°35' W 074°02'510.5
2017-Dec-08 12:30N 40°40' W 074°03'510.6
2017-Dec-08 12:00N 40°45' W 074°01'0 0.0
2017-Dec-08 11:30N 40°45' W 074°01'0 0.0
2017-Dec-08 11:00N 40°45' W 074°01'0 0.0
2017-Dec-08 10:30N 40°45' W 074°01'0 0.0
2017-Dec-08 10:00N 40°45' W 074°01'0 0.0
2017-Dec-08 09:30N 40°45' W 074°01'0 0.0
2017-Dec-08 08:59N 40°45' W 074°01'0 0.0
2017-Dec-08 08:30N 40°45' W 074°01'0 0.0
2017-Dec-08 08:00N 40°45' W 074°01'0 0.0
2017-Dec-08 07:30N 40°45' W 074°01'0 0.0
2017-Dec-08 07:00N 40°45' W 074°01'0 0.0
2017-Dec-08 06:30N 40°45' W 074°01'0 0.0
2017-Dec-08 06:00N 40°45' W 074°01'0 0.0
2017-Dec-08 05:30N 40°45' W 074°01'0 0.0
2017-Dec-08 05:00N 40°45' W 074°01'0 0.0
2017-Dec-08 04:30N 40°45' W 074°01'0 0.0
2017-Dec-08 04:00N 40°45' W 074°01'0 0.0
2017-Dec-08 03:30N 40°45' W 074°01'0 0.0
2017-Dec-08 03:00N 40°45' W 074°01'0 0.0
2017-Dec-08 02:29N 40°45' W 074°01'0 0.0
2017-Dec-08 02:00N 40°45' W 074°01'0 0.0
2017-Dec-08 01:30N 40°45' W 074°01'0 0.0
2017-Dec-08 01:00N 40°45' W 074°01'0 0.0
2017-Dec-08 00:30N 40°45' W 074°01'0 0.0
2017-Dec-08 00:00N 40°45' W 074°01'0 0.0
2017-Dec-07 23:30N 40°45' W 074°01'0 0.0
2017-Dec-07 23:00N 40°45' W 074°01'0 0.0
2017-Dec-07 22:30N 40°45' W 074°01'0 0.0
2017-Dec-07 22:00N 40°45' W 074°01'  
Track history (hours):
 
Tides and Currents Weather Stations Pressure Air Temp Water Temp Dewpoint Dewpoint Depression Visibility Wind Speed Wind Dir Waves Ship Positions

Grande Mariner

Owner: AMERICAN CANADIAN CARIBBEAN LINE INC, WARREN, RI. More information available from US FCC via Universal Licensing System and Coast Guard Vessel Documentation Center.

Last reported at 2017-Dec-17 21:31 UTC. Time now 2017-Dec-17 21:46 UTC.
Position N 26°46' W 080°03'.

Length 56 m; draft 2 m.

Type: Passenger vessel. MMSI: 369024000.

Date/timePositionNaut miles runAvg speedWind from/ knotsBaromVisibWave heightAir tempDewpointWater temp
2017-Dec-17 21:31N 26°46' W 080°03'0 0.0
2017-Dec-17 21:00N 26°46' W 080°03'0 0.0
2017-Dec-17 20:31N 26°46' W 080°03'0 0.0
2017-Dec-17 20:01N 26°46' W 080°03'0 0.0
2017-Dec-17 19:31N 26°46' W 080°03'0 0.0
2017-Dec-17 19:01N 26°46' W 080°03'0 0.0
2017-Dec-17 18:30N 26°46' W 080°03'0 0.0
2017-Dec-17 18:00N 26°46' W 080°03'0 0.0
2017-Dec-17 17:30N 26°46' W 080°03'0 0.0
2017-Dec-17 17:00N 26°46' W 080°03'0 0.0
2017-Dec-17 16:30N 26°46' W 080°03'0 0.0
2017-Dec-17 16:00N 26°46' W 080°03'0 0.0
2017-Dec-17 15:31N 26°46' W 080°03'0 0.0
2017-Dec-17 15:00N 26°46' W 080°03'0 0.0
2017-Dec-17 14:30N 26°46' W 080°03'0 0.0
2017-Dec-17 14:01N 26°46' W 080°03'0 0.0
2017-Dec-17 13:30N 26°46' W 080°03'0 0.0
2017-Dec-17 13:00N 26°46' W 080°03'0 0.0
2017-Dec-17 12:30N 26°46' W 080°03'3 5.9
2017-Dec-17 12:00N 26°47' W 079°60'5 9.3
2017-Dec-17 11:30N 26°51' W 080°01'5 9.7
2017-Dec-17 11:00N 26°56' W 080°02'5 9.4
2017-Dec-17 10:30N 27°01' W 080°03'298 9.4
2017-Dec-16 02:57N 31°56' W 080°44'264 8.1
2017-Dec-14 18:30N 34°43' W 076°40'0 0.0
2017-Dec-14 18:00N 34°43' W 076°40'0 0.0
2017-Dec-14 17:30N 34°43' W 076°40'0 0.0
2017-Dec-14 17:00N 34°43' W 076°40'0 0.0
2017-Dec-14 16:30N 34°43' W 076°40'0 0.0
2017-Dec-14 16:00N 34°43' W 076°40'0 0.0
2017-Dec-14 15:00N 34°43' W 076°40'0 0.0
2017-Dec-14 14:30N 34°43' W 076°40'0 0.0
2017-Dec-14 14:00N 34°43' W 076°40'0 0.0
2017-Dec-14 13:30N 34°43' W 076°40'0 0.0
2017-Dec-14 13:00N 34°43' W 076°40'0 0.0
2017-Dec-14 12:30N 34°43' W 076°40'0 0.0
2017-Dec-14 12:00N 34°43' W 076°40'0 0.0
2017-Dec-14 11:30N 34°43' W 076°40'0 0.0
2017-Dec-14 11:00N 34°43' W 076°40'0 0.0
2017-Dec-14 10:30N 34°43' W 076°40'0 0.0
2017-Dec-14 10:00N 34°43' W 076°40'0 0.0
2017-Dec-14 09:30N 34°43' W 076°40'0 0.0
2017-Dec-14 09:00N 34°43' W 076°40'0 0.0
2017-Dec-14 08:30N 34°43' W 076°40'0 0.0
2017-Dec-14 08:00N 34°43' W 076°40'0 0.0
2017-Dec-14 07:30N 34°43' W 076°40'0 0.0
2017-Dec-14 07:00N 34°43' W 076°40'0 0.0
2017-Dec-14 06:30N 34°43' W 076°40'0 0.0
2017-Dec-14 05:54N 34°43' W 076°40'0 0.0
2017-Dec-14 05:30N 34°43' W 076°40'0 0.0
2017-Dec-14 05:00N 34°43' W 076°40'0 0.0
2017-Dec-14 04:30N 34°43' W 076°40'0 0.0
2017-Dec-14 04:00N 34°43' W 076°40'0 0.0
2017-Dec-14 03:30N 34°43' W 076°40'0 0.0
2017-Dec-14 03:00N 34°43' W 076°40'0 0.0
2017-Dec-14 02:30N 34°43' W 076°40'0 0.0
2017-Dec-14 02:00N 34°43' W 076°40'0 0.0
2017-Dec-14 01:30N 34°43' W 076°40'0 0.0
2017-Dec-14 01:00N 34°43' W 076°40'0 0.0
2017-Dec-14 00:30N 34°43' W 076°40'0 0.0
2017-Dec-14 00:00N 34°43' W 076°40'0 0.0
2017-Dec-13 23:30N 34°43' W 076°40'0 0.0
2017-Dec-13 23:00N 34°43' W 076°40'0 0.0
2017-Dec-13 22:30N 34°43' W 076°40'0 0.0
2017-Dec-13 22:00N 34°43' W 076°40'0 0.0
2017-Dec-13 21:30N 34°43' W 076°40'0 0.0
2017-Dec-13 21:00N 34°43' W 076°40'0 0.0
2017-Dec-13 20:30N 34°43' W 076°40'0 0.0
2017-Dec-13 20:00N 34°43' W 076°40'0 0.0
2017-Dec-13 19:30N 34°43' W 076°40'0 0.0
2017-Dec-13 19:00N 34°43' W 076°40'0 0.0
2017-Dec-13 18:30N 34°43' W 076°40'0 0.0
2017-Dec-13 18:00N 34°43' W 076°40'0 0.0
2017-Dec-13 17:30N 34°43' W 076°40'0 0.0
2017-Dec-13 17:00N 34°43' W 076°40'0 0.0
2017-Dec-13 16:30N 34°43' W 076°40'0 0.0
2017-Dec-13 16:00N 34°43' W 076°40'0 0.0
2017-Dec-13 15:30N 34°43' W 076°40'0 0.0
2017-Dec-13 15:00N 34°43' W 076°40'0 0.0
2017-Dec-13 14:30N 34°43' W 076°40'0 0.0
2017-Dec-13 14:00N 34°43' W 076°40'0 0.0
2017-Dec-13 13:30N 34°43' W 076°40'0 0.0
2017-Dec-13 13:00N 34°43' W 076°40'0 0.0
2017-Dec-13 12:30N 34°43' W 076°40'0 0.0
2017-Dec-13 11:57N 34°43' W 076°40'0 0.0
2017-Dec-13 11:30N 34°43' W 076°40'0 0.0
2017-Dec-13 11:00N 34°43' W 076°40'0 0.0
2017-Dec-13 10:30N 34°43' W 076°40'0 0.0
2017-Dec-13 10:00N 34°43' W 076°40'0 0.0
2017-Dec-13 09:30N 34°43' W 076°40'0 0.0
2017-Dec-13 09:00N 34°43' W 076°40'0 0.0
2017-Dec-13 08:30N 34°43' W 076°40'0 0.0
2017-Dec-13 08:00N 34°43' W 076°40'0 0.0
2017-Dec-13 07:30N 34°43' W 076°40'0 0.0
2017-Dec-13 07:00N 34°43' W 076°40'0 0.0
2017-Dec-13 06:30N 34°43' W 076°40'0 0.0
2017-Dec-13 06:00N 34°43' W 076°40'0 0.0
2017-Dec-13 05:30N 34°43' W 076°40'0 0.0
2017-Dec-13 05:00N 34°43' W 076°40'0 0.0
2017-Dec-13 04:30N 34°43' W 076°40'0 0.0
2017-Dec-13 04:00N 34°43' W 076°40'0 0.0
2017-Dec-13 03:30N 34°43' W 076°40'0 0.0
2017-Dec-13 03:00N 34°43' W 076°40'0 0.0
2017-Dec-13 02:30N 34°43' W 076°40'0 0.0
2017-Dec-13 02:00N 34°43' W 076°40'0 0.0
2017-Dec-13 01:30N 34°43' W 076°40'0 0.0
2017-Dec-13 01:00N 34°43' W 076°40'0 0.0
2017-Dec-13 00:30N 34°43' W 076°40'0 0.0
2017-Dec-13 00:00N 34°43' W 076°40'0 0.0
2017-Dec-12 23:30N 34°43' W 076°40'0 0.0
2017-Dec-12 23:00N 34°43' W 076°40'0 0.0
2017-Dec-12 22:30N 34°43' W 076°40'0 0.0
2017-Dec-12 22:00N 34°43' W 076°40'0 0.0
2017-Dec-12 21:30N 34°43' W 076°40'0 0.0
2017-Dec-12 21:00N 34°43' W 076°40'0 0.0
2017-Dec-12 20:30N 34°43' W 076°40'0 0.0
2017-Dec-12 20:00N 34°43' W 076°40'0 0.0
2017-Dec-12 19:30N 34°43' W 076°40'0 0.0
2017-Dec-12 19:00N 34°43' W 076°40'0 0.0
2017-Dec-12 18:30N 34°43' W 076°40'0 0.0
2017-Dec-12 18:00N 34°43' W 076°40'0 0.0
2017-Dec-12 17:30N 34°43' W 076°40'0 0.0
2017-Dec-12 17:00N 34°43' W 076°40'0 0.0
2017-Dec-12 16:30N 34°43' W 076°40'0 0.0
2017-Dec-12 16:00N 34°43' W 076°40'0 0.0
2017-Dec-12 15:30N 34°43' W 076°40'0 0.0
2017-Dec-12 15:00N 34°43' W 076°40'0 0.0
2017-Dec-12 14:30N 34°43' W 076°40'0 0.0
2017-Dec-12 14:00N 34°43' W 076°40'0 0.0
2017-Dec-12 13:30N 34°43' W 076°40'0 0.0
2017-Dec-12 13:00N 34°43' W 076°40'0 0.0
2017-Dec-12 12:30N 34°43' W 076°40'0 0.0
2017-Dec-12 12:00N 34°43' W 076°40'0 0.0
2017-Dec-12 11:30N 34°43' W 076°40'0 0.0
2017-Dec-12 11:00N 34°43' W 076°40'0 0.0
2017-Dec-12 10:30N 34°43' W 076°40'0 0.0
2017-Dec-12 10:00N 34°43' W 076°40'0 0.0
2017-Dec-12 09:30N 34°43' W 076°40'0 0.0
2017-Dec-12 09:00N 34°43' W 076°40'0 0.0
2017-Dec-12 08:30N 34°43' W 076°40'0 0.0
2017-Dec-12 08:00N 34°43' W 076°40'0 0.0
2017-Dec-12 07:30N 34°43' W 076°40'0 0.0
2017-Dec-12 07:00N 34°43' W 076°40'0 0.0
2017-Dec-12 06:30N 34°43' W 076°40'0 0.0
2017-Dec-12 06:00N 34°43' W 076°40'0 0.0
2017-Dec-12 05:30N 34°43' W 076°40'0 0.0
2017-Dec-12 05:00N 34°43' W 076°40'0 0.0
2017-Dec-12 04:30N 34°43' W 076°40'0 0.0
2017-Dec-12 04:00N 34°43' W 076°40'0 0.0
2017-Dec-12 03:30N 34°43' W 076°40'0 0.0
2017-Dec-12 03:00N 34°43' W 076°40'0 0.0
2017-Dec-12 02:30N 34°43' W 076°40'0 0.0
2017-Dec-12 02:00N 34°43' W 076°40'0 0.0
2017-Dec-12 01:30N 34°43' W 076°40'0 0.0
2017-Dec-12 01:00N 34°43' W 076°40'0 0.0
2017-Dec-12 00:30N 34°43' W 076°40'0 0.0
2017-Dec-12 00:00N 34°43' W 076°40'0 0.0
2017-Dec-11 23:30N 34°43' W 076°40'0 0.0
2017-Dec-11 23:00N 34°43' W 076°40'0 0.0
2017-Dec-11 22:30N 34°43' W 076°40'0 0.0
2017-Dec-11 22:00N 34°43' W 076°40'0 0.0
2017-Dec-11 21:30N 34°43' W 076°40'0 0.0
2017-Dec-11 21:00N 34°43' W 076°40'0 0.0
2017-Dec-11 20:30N 34°43' W 076°40'0 0.0
2017-Dec-11 20:00N 34°43' W 076°40'0 0.0
2017-Dec-11 19:30N 34°43' W 076°40'0 0.0
2017-Dec-11 19:00N 34°43' W 076°40'0 0.0
2017-Dec-11 18:30N 34°43' W 076°40'0 0.0
2017-Dec-11 18:01N 34°43' W 076°40'4 7.4
2017-Dec-11 17:30N 34°39' W 076°40'140 6.9
2017-Dec-10 21:06N 36°55' W 075°57'2 9.9
2017-Dec-10 20:57N 36°56' W 075°58'4 9.6
2017-Dec-10 20:30N 36°57' W 076°03'14 6.2
2017-Dec-10 18:14N 36°53' W 076°20'2 8.5
2017-Dec-10 18:00N 36°51' W 076°19'1 1.9
2017-Dec-10 17:30N 36°51' W 076°18'0 0.0
2017-Dec-10 17:00N 36°51' W 076°18'0 0.0
2017-Dec-10 16:30N 36°51' W 076°18'0 0.0
2017-Dec-10 16:00N 36°51' W 076°18'0 0.0
2017-Dec-10 15:30N 36°51' W 076°18'0 0.6
2017-Dec-10 15:00N 36°51' W 076°18'0 0.0
2017-Dec-10 14:30N 36°51' W 076°18'0 0.0
2017-Dec-10 14:00N 36°51' W 076°18'0 0.0
2017-Dec-10 13:30N 36°51' W 076°18'0 0.0
2017-Dec-10 13:00N 36°51' W 076°18'0 0.0
2017-Dec-10 12:30N 36°51' W 076°18'0 0.0
2017-Dec-10 12:00N 36°51' W 076°18'0 0.0
2017-Dec-10 11:30N 36°51' W 076°18'0 0.0
2017-Dec-10 11:00N 36°51' W 076°18'0 0.0
2017-Dec-10 10:30N 36°51' W 076°18'0 0.0
2017-Dec-10 10:00N 36°51' W 076°18'0 0.0
2017-Dec-10 09:30N 36°51' W 076°18'0 0.0
2017-Dec-10 09:00N 36°51' W 076°18'0 0.0
2017-Dec-10 08:30N 36°51' W 076°18'0 0.0
2017-Dec-10 08:00N 36°51' W 076°18'0 0.0
2017-Dec-10 07:30N 36°51' W 076°18'0 0.0
2017-Dec-10 07:00N 36°51' W 076°18'0 0.0
2017-Dec-10 06:30N 36°51' W 076°18'0 0.0
2017-Dec-10 06:00N 36°51' W 076°18'0 0.0
2017-Dec-10 05:30N 36°51' W 076°18'0 0.0
2017-Dec-10 05:00N 36°51' W 076°18'0 0.0
2017-Dec-10 04:30N 36°51' W 076°18'0 0.0
2017-Dec-10 04:00N 36°51' W 076°18'0 0.0
2017-Dec-10 03:30N 36°51' W 076°18'0 0.0
2017-Dec-10 03:00N 36°51' W 076°18'0 0.0
2017-Dec-10 02:30N 36°51' W 076°18'0 0.0
2017-Dec-10 02:00N 36°51' W 076°18'0 0.0
2017-Dec-10 01:30N 36°51' W 076°18'0 0.0
2017-Dec-10 01:00N 36°51' W 076°18'4 8.2
2017-Dec-10 00:30N 36°54' W 076°20'124 9.7
2017-Dec-09 11:46N 38°58' W 076°24'311.2
2017-Dec-09 11:29N 39°01' W 076°22'510.8
2017-Dec-09 11:00N 39°06' W 076°20'511.0
2017-Dec-09 10:30N 39°11' W 076°17'611.5
2017-Dec-09 10:01N 39°16' W 076°14'611.6
2017-Dec-09 09:30N 39°21' W 076°10'611.6
2017-Dec-09 09:01N 39°24' W 076°03'510.0
2017-Dec-09 08:30N 39°27' W 075°59'510.4
2017-Dec-09 08:01N 39°31' W 075°54'4 8.8
2017-Dec-09 07:31N 39°32' W 075°48'5 8.9
2017-Dec-09 07:00N 39°33' W 075°42'4 8.7
2017-Dec-09 06:31N 39°33' W 075°37'3 6.8
2017-Dec-09 06:00N 39°32' W 075°33'510.9
2017-Dec-09 05:31N 39°26' W 075°32'611.1
2017-Dec-09 05:00N 39°22' W 075°28'511.0
2017-Dec-09 04:30N 39°18' W 075°23'510.7
2017-Dec-09 04:00N 39°14' W 075°18'57 6.6
2017-Dec-08 19:28N 39°32' W 074°09'510.6
2017-Dec-08 19:00N 39°37' W 074°06'610.5
2017-Dec-08 18:27N 39°42' W 074°04'610.5
2017-Dec-08 17:56N 39°48' W 074°02'4310.1
2017-Dec-08 13:43N 40°30' W 073°57'2 9.2
2017-Dec-08 13:30N 40°31' W 073°59'5 9.0
2017-Dec-08 13:00N 40°35' W 074°02'510.5
2017-Dec-08 12:30N 40°40' W 074°03'510.6
2017-Dec-08 12:00N 40°45' W 074°01'0 0.0
2017-Dec-08 11:30N 40°45' W 074°01'0 0.0
2017-Dec-08 11:00N 40°45' W 074°01'0 0.0
2017-Dec-08 10:30N 40°45' W 074°01'0 0.0
2017-Dec-08 10:00N 40°45' W 074°01'0 0.0
2017-Dec-08 09:30N 40°45' W 074°01'0 0.0
2017-Dec-08 08:59N 40°45' W 074°01'0 0.0
2017-Dec-08 08:30N 40°45' W 074°01'0 0.0
2017-Dec-08 08:00N 40°45' W 074°01'0 0.0
2017-Dec-08 07:30N 40°45' W 074°01'0 0.0
2017-Dec-08 07:00N 40°45' W 074°01'0 0.0
2017-Dec-08 06:30N 40°45' W 074°01'0 0.0
2017-Dec-08 06:00N 40°45' W 074°01'0 0.0
2017-Dec-08 05:30N 40°45' W 074°01'0 0.0
2017-Dec-08 05:00N 40°45' W 074°01'0 0.0
2017-Dec-08 04:30N 40°45' W 074°01'0 0.0
2017-Dec-08 04:00N 40°45' W 074°01'0 0.0
2017-Dec-08 03:30N 40°45' W 074°01'0 0.0
2017-Dec-08 03:00N 40°45' W 074°01'0 0.0
2017-Dec-08 02:29N 40°45' W 074°01'0 0.0
2017-Dec-08 02:00N 40°45' W 074°01'0 0.0
2017-Dec-08 01:30N 40°45' W 074°01'0 0.0
2017-Dec-08 01:00N 40°45' W 074°01'0 0.0
2017-Dec-08 00:30N 40°45' W 074°01'0 0.0
2017-Dec-08 00:00N 40°45' W 074°01'0 0.0
2017-Dec-07 23:30N 40°45' W 074°01'0 0.0
2017-Dec-07 23:00N 40°45' W 074°01'0 0.0
2017-Dec-07 22:30N 40°45' W 074°01'0 0.0
2017-Dec-07 22:00N 40°45' W 074°01'  

Dump ship's entire track history